Westwood Village, Idaho
Current Conditions -  °F | °C
As of 5:53 AM on Tuesday 21 Oct 2014 (Local Time) from KPIH Reporting Station
Light Rain Light Rain  
Wind Chill: 52°   Ceiling: 9500
Heat Index: 52°   Visibility: 10mi
Dew Point: 44°   Wind: 14mph
Humidity: 74%   Direction: 200°SSW
Pressure: 29.87"   Gusts: NA
Location:  42.8976°N, 112.37°W
Report Text: KPIH 211153Z 20012KT 10SM -RA FEW070 BKN095 OVC110 11/07 A2987 RMK AO2 PK WND 24039/1110 WSHFT 1101 RAB01 SLP079 P0000 60000 T01110067 10200 20111 53022
Loading
Personal Weather Stations






























Interactive Weather Map
Tropical Storm Tracking
New forecast layout! Learn more

10-Day Weather Forecast

Advertisements
Track Severe Weather on mobile